TENO2: Tenkiller Lake

Data processed at Sat Feb 17 2018 23:30


All information presented herein is the property of the government of the United States of America and may be revised or deleted at any time without prior notice.
Dissemination of this information without the expressed written consent of the Public Affairs Office, Tulsa District U.S. Army Corps of Engineers is strictly prohibited.
These data are gathered electronically and, as presented, have not undergone any form of quality control. These data are not guaranteed to be valid or correct.
Go to home page.
Go to station list.

Upstream stations:

Downstream station:
Previous Day
Next Day
Current Day
    
SHEF ID:       TENO2     Tenkiller Lake
STATION TYPE:  Reservoir
Normal Pool:  Bottom =   594.50, Top =   632.00

               PRECIP PRECIP(A) ELEVATION   STORAGE   TW-ELEV    INFLOW   RELEASE  AIR-TEMP  WIND-DIRWIND-SPEED REL-HUMID SOLAR-RAD   VOLTAGE  BAT-LOAD
                   in        in        ft     ac-ft        ft       cfs       cfs         F       deg       mph         %      W/m2      volt      volt
              Ccp-Rev   Ccp-Rev   Ccp-Rev   Ccp-Rev   Ccp-Rev  Regi-Rev  Regi-Rev   Ccp-Rev   Ccp-Rev   Ccp-Rev   Ccp-Rev   Ccp-Rev   Ccp-Rev   Ccp-Rev
(US/Central)
02/15 00:00      0.00      0.00    625.29    586117    482.12       376         0     60.31    238.90      0.67     96.63      0.00     13.73     13.36
02/15 01:00      0.00      0.00    625.28    586001    482.11       470         0     60.10    114.00      0.07     97.73      1.00     13.72     13.36
02/15 02:00      0.00      0.00    625.30    586234    482.11       430         0     61.75    247.80      0.43     94.92      0.00     13.73     13.36
02/15 03:00      0.00      0.00    625.27    585885    482.10       336         0     62.40    229.60      0.25     91.75      0.00     13.73     13.36
02/15 04:00      0.00      0.00    625.29    586117    482.10       242         0     65.26    241.30      0.46     82.16      0.00     13.73     13.42
02/15 05:00      0.00      0.00    625.30    586234    482.09       148         0     65.93    223.50      2.28     79.66      0.00     13.73     13.36
02/15 06:00      0.00      0.00    625.29    586117    482.09        54         0     65.61    223.90      2.49     80.53      0.00     13.73     13.36
02/15 07:00      0.00      0.00    625.29    586117    483.03         0         0     65.05    220.10      3.59     81.86      0.00     13.73     13.36
02/15 08:00      0.00      0.00    625.27    585885    485.50         1      1787     64.81    231.40      2.39     82.71     30.00     13.73     13.30
02/15 09:00      0.00      0.00    625.29    586117    485.24         1      1787     66.69    228.10      4.94     78.26    162.00     13.73     13.18
02/15 10:00      0.00      0.00    625.25    585652    482.33         1       274     69.87    228.90      4.75     69.71    300.00     13.73     13.30
02/15 11:00      0.00      0.00    625.26    585768    482.14         1         0     71.85    230.00      5.14     61.84    446.00     13.73     13.30
02/15 12:00      0.00      0.00    625.26    585768    482.11        22         0     72.84    223.50      5.62     56.95    408.00     13.73     13.30
02/15 13:00      0.00      0.00    625.27    585885    482.11        42         0     72.73    229.70      5.77     56.53    280.00     13.73     13.30
02/15 14:00      0.00      0.00    625.28    586001    482.11        63         0     74.82    231.60      5.49     51.64    221.00     13.73     13.30
02/15 15:00      0.00      0.00    625.25    585652    482.10       250         0     76.35    237.30      4.97     48.77    325.00     13.73     13.30
02/15 16:00      0.00      0.00    625.30    586234    482.10       406         0     77.23    226.70      5.36     48.10    248.00     13.73     13.30
02/15 17:00      0.00      0.00    625.27    585885    482.11       386         0     75.49    232.20      3.56     52.86    205.00     13.73     13.30
02/15 18:00      0.00      0.00    625.30    586234    482.10       365         0     73.06    229.80      3.66     58.85     37.00     13.73     13.24
02/15 19:00      0.00      0.00    625.30    586234    482.10       344         0     71.31    228.50      2.76     66.78      1.00     13.74     13.30
02/15 20:00      0.00      0.00    625.30    586234    482.10       156         0     69.98    221.40      2.16     72.40      1.00     13.73     13.24
02/15 21:00      0.00      0.00    625.30    586234    482.10         0         0     69.22    237.10      1.17     76.36      0.00     13.73     13.30
02/15 22:00      0.00      0.00    625.31    586350    482.10         0         0     66.69    251.90      0.30     84.79      0.00     13.73     13.30
02/15 23:00      0.00      0.00    625.32    586466    482.10         7         0     64.06    205.40      0.39     89.67      0.00     13.74     13.24